GR-0010 weather

Thiva
Boeotia, Greece

Public forecast

Using degrees Celsius for public forecast. Weather courtesy of forecast.io.

Closest aviation weather report (METAR) to Thiva

Closest report is Tanagra Air Base, 14.6 nm (27.1 km) E. Retrieved 2020/07/12 07:50 UTC (58 minutes ago):

LGTG 120750Z 35008KT CAVOK 30/12 Q1012 BLU

Closest aviation forecast (TAF) to Thiva

Closest forecast is Elefsis Airport, 23.4 nm (43.4 km) SE. Retrieved 2020/07/12 06:12 UTC (3 hours ago):

TAF LGEL 120500Z 1206/1306 34010KT 9999 FEW020 TEMPO 1212/1218 36010G20KT